ePrivacy and GPDR Cookie Consent by Cookie Consent
EmailTwitter


Surface observations / United States / KJFK (74486)

Regions: Quebec | Canada | USA | Europe | France | UK | Elsewhere
Station
Display
Info & Location for KJFK (74486) | Help decoding METAR

Weather Conditions observed on 2024/05/26 at 19:51 UTC at NEW YORK/JF KENN, NY (KJFK)

Sky conditions: partly cloudy.

Temperature: 22.2 Celsius.

Dewpoint: 19.4 Celsius.

Relative Humidity: 84%

Humidex 29.

Winds: Southeast at 19 km/h or 10 knots.

Mean Sea level Pressure: 101.32 kilopascals.

Altimeter Setting (QNH): 101.32 kilopascals or 29.92 inches of mercury.

Horizontal visibility: 10.00 statute miles or 16.00 kilometers.

Height of the Ceiling: 1829 metres ( 6000 feet ).

Coded METAR:

KJFK 261951Z 15010KT 10SM SCT004 BKN060 BKN250 22/19 A2992 RMK AO2 SLP132

T02220194 $=